Time;durP1;ratioP1;P1;durP2;ratioP2;P2;SDS_P1;SDS_P2;PMS_P1;PMS_P2;Temp;Humidity;BMP_temperature;BMP_pressure;BME280_temperature;BME280_humidity;BME280_pressure;Samples;Min_cycle;Max_cycle;Signal;HPM_P1;HPM_P2
2022/11/08 00:01:30;;;;;;;22.90;12.05;;;;;;;5.98;100.00;98527.38;2574804;28;20105;-78
2022/11/08 00:02:46;;;;;;;26.88;12.60;;;;;;;6.05;100.00;98528.22;2574982;28;20488;-81
2022/11/08 00:04:08;;;;;;;22.77;12.30;;;;;;;6.18;100.00;98523.78;2575381;28;20125;-79
2022/11/08 00:14:50;;;;;;;54.90;19.75;;;;;;;5.74;100.00;98524.09;2577372;28;20085;-79
2022/11/08 00:16:06;;;;;;;40.55;19.05;;;;;;;5.61;100.00;98532.84;2577007;28;20516;-78
2022/11/08 00:17:23;;;;;;;100.25;23.17;;;;;;;5.67;100.00;98524.16;2566038;28;20046;-79
2022/11/08 00:18:39;;;;;;;38.60;18.00;;;;;;;5.80;100.00;98525.81;2570923;28;20062;-79
2022/11/08 00:19:55;;;;;;;43.83;18.75;;;;;;;5.74;100.00;98523.22;2577173;28;20055;-79
2022/11/08 00:21:11;;;;;;;60.67;18.45;;;;;;;5.64;100.00;98525.88;2576769;28;20054;-78
2022/11/08 00:22:29;;;;;;;49.63;18.23;;;;;;;5.68;100.00;98521.53;2576990;28;20061;-81
2022/11/08 00:23:44;;;;;;;30.65;16.35;;;;;;;5.72;100.00;98518.03;2577064;28;20102;-80
2022/11/08 00:25:00;;;;;;;34.25;16.65;;;;;;;5.65;100.00;98522.41;2577027;28;20412;-78
2022/11/08 00:26:16;;;;;;;31.77;15.93;;;;;;;5.67;100.00;98521.56;2577548;28;20532;-78
2022/11/08 00:27:31;;;;;;;38.45;16.52;;;;;;;5.23;100.00;98514.88;2576862;28;20046;-78
2022/11/08 00:28:47;;;;;;;50.42;17.80;;;;;;;5.61;100.00;98522.47;2576089;28;20128;-78
2022/11/08 00:30:03;;;;;;;93.93;18.17;;;;;;;5.66;100.00;98525.88;2577416;28;20133;-79
2022/11/08 00:31:19;;;;;;;106.60;17.58;;;;;;;5.39;100.00;98524.34;2576435;28;20361;-78
2022/11/08 00:32:34;;;;;;;95.78;15.15;;;;;;;5.56;100.00;98527.69;2577395;28;20050;-78
2022/11/08 00:33:50;;;;;;;70.03;15.52;;;;;;;5.49;100.00;98526.84;2577078;28;20461;-78
2022/11/08 00:35:06;;;;;;;84.75;14.18;;;;;;;5.61;100.00;98530.25;2577631;28;20055;-79
2022/11/08 00:36:22;;;;;;;36.25;13.25;;;;;;;5.52;100.00;98526.00;2576001;28;20046;-82
2022/11/08 00:37:37;;;;;;;33.95;12.10;;;;;;;5.65;100.00;98527.59;2577588;28;20723;-79
2022/11/08 00:38:53;;;;;;;32.85;13.10;;;;;;;5.69;100.00;98532.81;2576718;28;20133;-79
2022/11/08 00:40:09;;;;;;;74.13;13.93;;;;;;;5.68;100.00;98529.31;2577281;28;20078;-79
2022/11/08 00:41:25;;;;;;;50.42;12.73;;;;;;;5.70;100.00;98524.13;2576495;28;20059;-78
2022/11/08 00:42:40;;;;;;;28.35;12.05;;;;;;;5.69;100.00;98523.25;2577400;28;20061;-77
2022/11/08 00:43:56;;;;;;;55.63;11.85;;;;;;;5.30;100.00;98515.72;2576806;28;20049;-81
2022/11/08 00:45:12;;;;;;;60.78;13.07;;;;;;;5.45;100.00;98525.16;2577037;28;20054;-77
2022/11/08 00:46:27;;;;;;;64.32;11.63;;;;;;;5.14;100.00;98517.50;2576695;28;20061;-80
2022/11/08 00:47:43;;;;;;;37.72;11.15;;;;;;;4.87;100.00;98516.75;2576944;28;20054;-77
2022/11/08 00:48:58;;;;;;;75.65;12.57;;;;;;;5.20;100.00;98516.63;2576819;28;20058;-78
2022/11/08 00:50:14;;;;;;;51.97;11.57;;;;;;;5.27;100.00;98515.75;2577066;28;20057;-78
2022/11/08 00:51:29;;;;;;;43.47;10.73;;;;;;;5.39;100.00;98517.38;2577166;28;20050;-78
2022/11/08 00:52:45;;;;;;;37.70;10.95;;;;;;;5.45;100.00;98517.38;2577016;28;20056;-78
2022/11/08 00:54:01;;;;;;;79.30;12.65;;;;;;;5.56;100.00;98516.41;2576750;28;20101;-77
2022/11/08 00:55:16;;;;;;;38.15;9.98;;;;;;;5.51;100.00;98516.44;2576802;28;20099;-78
2022/11/08 00:56:33;;;;;;;35.45;11.15;;;;;;;5.42;100.00;98513.94;2576539;28;20054;-79
2022/11/08 00:57:48;;;;;;;59.95;11.13;;;;;;;5.48;100.00;98512.16;2576323;28;20161;-78
2022/11/08 00:59:04;;;;;;;39.90;11.52;;;;;;;5.46;100.00;98515.63;2577036;28;20085;-77
2022/11/08 01:00:19;;;;;;;53.28;12.70;;;;;;;5.64;100.00;98509.44;2576233;28;20078;-78
2022/11/08 01:01:35;;;;;;;63.95;11.80;;;;;;;5.67;100.00;98512.03;2576566;28;20521;-78
2022/11/08 01:03:17;;;;;;;53.08;11.05;;;;;;;5.54;100.00;98506.06;2576580;28;20489;-78
2022/11/08 01:04:26;;;;;;;31.05;9.73;;;;;;;5.29;100.00;98506.19;2575968;28;20548;-78
2022/11/08 01:05:42;;;;;;;42.25;10.60;;;;;;;5.28;100.00;98506.19;2577175;28;20137;-79
2022/11/08 01:06:57;;;;;;;38.28;10.10;;;;;;;5.28;100.00;98503.59;2576355;28;20042;-79
2022/11/08 01:08:13;;;;;;;33.55;9.13;;;;;;;4.92;100.00;98504.66;2576476;28;20146;-78
2022/11/08 01:09:28;;;;;;;16.27;9.50;;;;;;;5.23;100.00;98498.44;2576015;28;20222;-77
2022/11/08 01:10:46;;;;;;;34.30;10.13;;;;;;;5.33;100.00;98500.13;2576492;28;20130;-79
2022/11/08 01:12:02;;;;;;;47.72;10.10;;;;;;;5.39;100.00;98506.16;2576008;28;20129;-82
2022/11/08 01:13:18;;;;;;;30.73;9.30;;;;;;;5.19;100.00;98492.41;2576359;28;20096;-78
2022/11/08 01:14:33;;;;;;;26.35;9.48;;;;;;;4.94;100.00;98497.72;2576638;28;20050;-77
2022/11/08 01:15:49;;;;;;;17.15;9.50;;;;;;;5.12;100.00;98488.13;2575721;28;20475;-77
2022/11/08 01:17:05;;;;;;;42.75;10.05;;;;;;;5.24;100.00;98497.59;2576537;28;20240;-77
2022/11/08 01:18:20;;;;;;;38.80;9.50;;;;;;;4.98;100.00;98497.69;2576788;28;20054;-78
2022/11/08 01:19:36;;;;;;;17.92;8.35;;;;;;;4.98;100.00;98500.28;2576359;28;20088;-78
2022/11/08 01:20:51;;;;;;;28.67;9.00;;;;;;;5.04;100.00;98495.09;2576339;28;20058;-77
2022/11/08 01:22:07;;;;;;;46.83;10.07;;;;;;;5.04;100.00;98495.09;2576150;28;20428;-79
2022/11/08 01:23:23;;;;;;;29.13;9.55;;;;;;;4.98;100.00;98493.38;2576403;28;20065;-79
2022/11/08 01:24:38;;;;;;;22.50;8.57;;;;;;;5.01;100.00;98495.09;2575836;28;20051;-79
2022/11/08 01:25:54;;;;;;;33.53;8.52;;;;;;;5.05;100.00;98489.03;2575762;28;20054;-78
2022/11/08 01:27:09;;;;;;;28.75;8.93;;;;;;;5.07;100.00;98488.13;2576197;28;20054;-77
2022/11/08 01:28:26;;;;;;;30.05;8.27;;;;;;;5.11;100.00;98483.78;2576528;28;20065;-78
2022/11/08 01:29:41;;;;;;;45.20;8.45;;;;;;;5.16;100.00;98482.03;2576631;28;20162;-78
2022/11/08 01:31:03;;;;;;;38.38;8.60;;;;;;;5.25;100.00;98483.75;2576392;28;20046;-77
2022/11/08 01:32:18;;;;;;;46.83;9.68;;;;;;;5.23;100.00;98483.72;2577059;28;20077;-78
2022/11/08 01:33:34;;;;;;;18.05;8.65;;;;;;;5.22;100.00;98471.63;2576038;28;20062;-78
2022/11/08 01:34:50;;;;;;;21.70;8.15;;;;;;;5.17;100.00;98476.00;2576553;28;20050;-78
2022/11/08 01:36:07;;;;;;;44.17;8.98;;;;;;;5.11;100.00;98481.19;2575964;28;20125;-78
2022/11/08 01:37:23;;;;;;;44.13;9.40;;;;;;;5.04;100.00;98479.53;2576769;28;20057;-78
2022/11/08 01:38:39;;;;;;;48.08;9.00;;;;;;;5.02;100.00;98478.66;2576458;28;20287;-78
2022/11/08 01:39:54;;;;;;;53.42;8.75;;;;;;;5.11;100.00;98483.78;2576268;28;20072;-79
2022/11/08 01:41:13;;;;;;;40.58;8.13;;;;;;;4.92;100.00;98488.22;2583655;28;20080;-78
2022/11/08 01:42:32;;;;;;;33.25;8.48;;;;;;;5.00;100.00;98475.19;2585750;28;20046;-77
2022/11/08 01:43:47;;;;;;;14.35;8.38;;;;;;;5.12;100.00;98482.06;2586156;28;20054;-78
2022/11/08 01:45:08;;;;;;;33.17;8.32;;;;;;;5.25;100.00;98485.47;2586734;28;20468;-78
2022/11/08 01:46:43;;;;;;;29.00;7.28;;;;;;;5.16;100.00;98483.78;2586689;28;20101;-79
2022/11/08 01:47:58;;;;;;;25.58;7.47;;;;;;;5.20;100.00;98483.75;2586019;28;20113;-79
2022/11/08 01:49:30;;;;;;;42.33;8.57;;;;;;;5.29;100.00;98481.97;2586629;28;20100;-77
2022/11/08 01:50:45;;;;;;;74.00;8.68;;;;;;;5.33;100.00;98478.50;2586085;28;20140;-78
2022/11/08 01:52:45;;;;;;;76.38;8.68;;;;;;;5.34;100.00;98477.63;2586219;28;20064;-78
2022/11/08 01:54:05;;;;;;;50.97;7.13;;;;;;;5.34;100.00;98478.47;2540302;29;20134;-78
2022/11/08 01:55:35;;;;;;;61.95;7.85;;;;;;;5.27;100.00;98476.78;2540398;29;20056;-79
2022/11/08 01:56:52;;;;;;;29.58;7.15;;;;;;;5.14;100.00;98472.53;2539175;29;20087;-78
2022/11/08 01:58:14;;;;;;;23.15;6.13;;;;;;;4.73;100.00;98475.31;2540909;29;20092;-78
2022/11/08 01:59:32;;;;;;;24.17;7.80;;;;;;;4.58;100.00;98471.03;2560006;28;20093;-79
2022/11/08 02:00:48;;;;;;;26.42;7.30;;;;;;;4.69;100.00;98470.16;2586443;28;20073;-78
2022/11/08 02:02:04;;;;;;;17.52;7.10;;;;;;;4.56;100.00;98467.59;2586387;28;20052;-77
2022/11/08 02:03:21;;;;;;;23.52;7.07;;;;;;;4.71;100.00;98465.81;2586000;28;20081;-78
2022/11/08 02:04:40;;;;;;;18.77;7.55;;;;;;;4.82;100.00;98464.03;2585957;28;20050;-78
2022/11/08 02:05:56;;;;;;;11.10;6.72;;;;;;;4.93;100.00;98458.78;2585768;28;20057;-78
2022/11/08 02:07:12;;;;;;;13.60;7.20;;;;;;;4.98;100.00;98461.38;2585646;28;20064;-78
2022/11/08 02:08:35;;;;;;;22.10;7.32;;;;;;;4.80;100.00;98463.19;2585954;28;20058;-77
2022/11/08 02:09:50;;;;;;;14.35;7.00;;;;;;;4.83;100.00;98460.56;2586317;28;20484;-78
2022/11/08 02:11:09;;;;;;;34.25;7.65;;;;;;;4.75;100.00;98452.84;2586194;28;20442;-77
2022/11/08 02:12:26;;;;;;;28.65;7.22;;;;;;;5.02;100.00;98456.16;2586547;28;20049;-78
2022/11/08 02:13:42;;;;;;;26.80;7.55;;;;;;;5.12;100.00;98459.56;2585631;28;20049;-78
2022/11/08 02:14:58;;;;;;;54.65;9.27;;;;;;;4.99;100.00;98453.59;2575453;28;20057;-81
2022/11/08 02:16:15;;;;;;;29.30;7.28;;;;;;;5.03;100.00;98457.88;2579309;28;20497;-78
2022/11/08 02:17:30;;;;;;;30.55;7.95;;;;;;;4.71;100.00;98456.31;2585610;28;20144;-78
2022/11/08 02:18:47;;;;;;;72.18;8.95;;;;;;;4.34;100.00;98465.09;2585901;28;20061;-78
2022/11/08 02:20:04;;;;;;;33.20;8.10;;;;;;;4.31;100.00;98457.28;2586053;28;20046;-79
2022/11/08 02:21:33;;;;;;;54.22;8.18;;;;;;;4.41;100.00;98458.16;2585629;28;20507;-78
2022/11/08 02:23:20;;;;;;;38.33;8.57;;;;;;;4.52;100.00;98455.53;2585592;28;20142;-78
2022/11/08 02:24:35;;;;;;;36.40;7.50;;;;;;;4.64;100.00;98455.47;2586258;28;20143;-78
2022/11/08 02:25:51;;;;;;;36.03;7.45;;;;;;;4.85;100.00;98450.22;2585577;28;20495;-81
2022/11/08 02:27:07;;;;;;;51.97;7.90;;;;;;;4.96;100.00;98451.03;2586076;28;20128;-78
2022/11/08 02:28:23;;;;;;;42.58;7.60;;;;;;;4.82;100.00;98456.25;2585471;28;20137;-78
2022/11/08 02:29:39;;;;;;;19.05;6.18;;;;;;;4.52;100.00;98452.94;2586102;28;20046;-78
2022/11/08 02:30:55;;;;;;;33.55;7.55;;;;;;;4.49;100.00;98456.38;2585270;28;20115;-78
2022/11/08 02:32:11;;;;;;;31.60;7.15;;;;;;;4.28;100.00;98451.28;2586074;28;20057;-77
2022/11/08 02:33:27;;;;;;;55.17;8.25;;;;;;;4.46;100.00;98452.94;2574987;28;20137;-78
2022/11/08 02:34:47;;;;;;;48.35;7.93;;;;;;;4.45;100.00;98444.31;2579668;28;20536;-78
2022/11/08 02:36:05;;;;;;;44.17;7.95;;;;;;;4.51;100.00;98438.25;2585776;28;20060;-78
2022/11/08 02:37:22;;;;;;;73.65;8.30;;;;;;;4.36;100.00;98431.34;2586222;28;20050;-79
2022/11/08 02:38:41;;;;;;;27.63;7.30;;;;;;;4.25;100.00;98434.00;2585728;28;20512;-77
2022/11/08 02:39:57;;;;;;;64.32;7.28;;;;;;;4.30;100.00;98437.44;2585865;28;20045;-78
2022/11/08 02:41:12;;;;;;;57.92;8.00;;;;;;;4.22;100.00;98427.06;2586026;28;20054;-78
2022/11/08 02:42:28;;;;;;;27.60;7.10;;;;;;;4.11;100.00;98434.00;2585991;28;20056;-77
2022/11/08 02:43:44;;;;;;;37.30;7.22;;;;;;;3.95;100.00;98430.59;2585911;28;20045;-78
2022/11/08 02:44:59;;;;;;;33.70;7.30;;;;;;;3.77;100.00;98434.94;2585991;28;20377;-78
2022/11/08 02:46:15;;;;;;;44.33;7.55;;;;;;;3.99;100.00;98440.09;2585416;28;20108;-77
2022/11/08 02:47:30;;;;;;;65.22;9.82;;;;;;;3.99;100.00;98439.25;2585312;28;20061;-77
2022/11/08 02:48:46;;;;;;;27.17;7.47;;;;;;;3.85;100.00;98434.94;2586007;28;20516;-78
2022/11/08 02:50:02;;;;;;;30.42;7.07;;;;;;;4.00;100.00;98435.78;2585757;28;20508;-78
2022/11/08 02:51:17;;;;;;;14.68;6.07;;;;;;;3.99;100.00;98432.31;2586032;28;20080;-77
2022/11/08 02:52:33;;;;;;;31.17;6.35;;;;;;;4.07;100.00;98433.19;2584706;28;20042;-78
2022/11/08 02:53:49;;;;;;;37.20;6.32;;;;;;;4.09;100.00;98428.84;2585270;28;20416;-77
2022/11/08 02:55:04;;;;;;;20.33;5.68;;;;;;;4.06;100.00;98434.03;2586076;28;20054;-82
2022/11/08 02:56:22;;;;;;;17.08;6.00;;;;;;;4.04;100.00;98424.53;2585781;28;20612;-78
2022/11/08 02:57:37;;;;;;;37.28;6.65;;;;;;;3.99;100.00;98427.13;2585780;28;20836;-78
2022/11/08 02:58:53;;;;;;;34.38;5.85;;;;;;;3.84;100.00;98429.75;2586006;28;20104;-77
2022/11/08 03:00:09;;;;;;;26.02;5.72;;;;;;;3.57;100.00;98429.78;2584967;28;20053;-77
2022/11/08 03:01:25;;;;;;;35.63;6.07;;;;;;;3.43;100.00;98424.56;2585212;28;20049;-77
2022/11/08 03:02:40;;;;;;;19.92;5.82;;;;;;;3.66;100.00;98428.91;2585575;28;20500;-79
2022/11/08 03:03:56;;;;;;;10.82;5.15;;;;;;;3.69;100.00;98428.91;2585947;28;20057;-77
2022/11/08 03:05:12;;;;;;;13.20;5.75;;;;;;;3.85;100.00;98429.75;2585527;28;20104;-77
2022/11/08 03:06:27;;;;;;;20.35;5.85;;;;;;;3.95;100.00;98431.44;2586212;28;20038;-77
2022/11/08 03:07:43;;;;;;;26.40;6.38;;;;;;;3.79;100.00;98434.94;2585713;28;20054;-77
2022/11/08 03:08:59;;;;;;;22.38;6.18;;;;;;;4.05;100.00;98434.91;2585799;28;20054;-77
2022/11/08 03:10:16;;;;;;;25.27;6.05;;;;;;;4.04;100.00;98440.09;2585489;28;20492;-77
2022/11/08 03:11:31;;;;;;;23.38;6.15;;;;;;;4.32;100.00;98440.03;2585518;28;20080;-79
2022/11/08 03:12:57;;;;;;;27.23;6.50;;;;;;;4.27;100.00;98437.44;2585801;28;20076;-76
2022/11/08 03:14:12;;;;;;;27.55;6.13;;;;;;;4.12;100.00;98440.06;2585295;28;20503;-76
2022/11/08 03:15:29;;;;;;;47.25;6.90;;;;;;;4.38;100.00;98437.41;2585930;28;20050;-77
2022/11/08 03:16:44;;;;;;;37.40;6.65;;;;;;;4.34;100.00;98441.75;2585735;28;20056;-77
2022/11/08 03:18:01;;;;;;;45.67;6.43;;;;;;;4.54;100.00;98438.22;2585835;28;20041;-79
2022/11/08 03:19:17;;;;;;;34.47;6.97;;;;;;;4.56;100.00;98438.22;2574406;28;20074;-77
2022/11/08 03:20:32;;;;;;;26.83;6.40;;;;;;;4.51;100.00;98439.09;2579126;28;20045;-77
2022/11/08 03:21:48;;;;;;;27.98;5.95;;;;;;;4.65;100.00;98440.75;2585485;28;20120;-77
2022/11/08 03:23:05;;;;;;;38.13;6.50;;;;;;;4.48;100.00;98439.09;2585926;28;20049;-80
2022/11/08 03:24:21;;;;;;;28.33;5.57;;;;;;;4.40;100.00;98434.81;2585041;28;20081;-77
2022/11/08 03:25:36;;;;;;;18.48;5.60;;;;;;;4.29;100.00;98440.88;2585495;28;20463;-77
2022/11/08 03:26:52;;;;;;;24.65;5.53;;;;;;;4.48;100.00;98446.88;2585239;28;20080;-77
2022/11/08 03:28:08;;;;;;;13.98;5.82;;;;;;;4.49;100.00;98438.22;2574612;28;20108;-77
2022/11/08 03:29:24;;;;;;;31.42;6.15;;;;;;;4.46;100.00;98442.56;2578988;28;20386;-78
2022/11/08 03:30:39;;;;;;;9.70;5.45;;;;;;;4.28;100.00;98443.50;2584668;28;20041;-78
2022/11/08 03:31:55;;;;;;;23.45;6.10;;;;;;;4.47;100.00;98446.88;2580873;28;20128;-80
2022/11/08 03:33:10;;;;;;;31.55;6.22;;;;;;;4.30;100.00;98447.78;2585626;28;20060;-77
2022/11/08 03:34:26;;;;;;;12.90;5.78;;;;;;;4.27;100.00;98447.81;2585205;28;20463;-77
2022/11/08 03:35:42;;;;;;;29.73;6.43;;;;;;;4.22;100.00;98449.56;2585568;28;20517;-77
2022/11/08 03:36:57;;;;;;;23.02;6.50;;;;;;;4.38;100.00;98446.06;2585194;28;20485;-77
2022/11/08 03:38:13;;;;;;;22.60;6.03;;;;;;;4.38;100.00;98452.94;2585324;28;20053;-76
2022/11/08 03:39:30;;;;;;;48.38;7.72;;;;;;;4.48;100.00;98446.03;2584461;28;20133;-76
2022/11/08 03:40:45;;;;;;;34.65;6.00;;;;;;;4.44;100.00;98444.28;2584927;28;20065;-77
2022/11/08 03:42:04;;;;;;;12.73;4.72;;;;;;;4.50;100.00;98434.78;2585494;28;20058;-77
2022/11/08 03:43:19;;;;;;;25.85;5.53;;;;;;;4.52;100.00;98435.63;2573975;28;20062;-77
2022/11/08 03:44:35;;;;;;;23.10;5.30;;;;;;;4.22;100.00;98434.00;2578479;28;20548;-77
2022/11/08 03:45:51;;;;;;;41.40;5.78;;;;;;;4.42;100.00;98441.72;2585797;28;20046;-77
2022/11/08 03:47:08;;;;;;;29.13;5.18;;;;;;;4.38;100.00;98443.47;2585449;28;20519;-77
2022/11/08 03:48:23;;;;;;;53.70;6.57;;;;;;;4.49;100.00;98437.38;2585359;28;20060;-79
2022/11/08 03:49:39;;;;;;;23.95;5.78;;;;;;;4.50;100.00;98444.28;2585573;28;20046;-77
2022/11/08 03:50:54;;;;;;;34.78;5.32;;;;;;;4.49;100.00;98447.75;2585542;28;20050;-78
2022/11/08 03:52:10;;;;;;;37.15;6.53;;;;;;;4.53;100.00;98441.69;2585104;28;20097;-77
2022/11/08 03:53:26;;;;;;;47.45;6.18;;;;;;;4.42;100.00;98446.91;2585162;28;20054;-77
2022/11/08 03:54:42;;;;;;;37.58;5.72;;;;;;;4.42;100.00;98446.91;2585049;28;20057;-77
2022/11/08 03:56:00;;;;;;;40.35;6.22;;;;;;;4.50;100.00;98445.13;2585296;28;20895;-80
2022/11/08 03:57:16;;;;;;;35.35;5.88;;;;;;;4.45;100.00;98446.03;2585678;28;20045;-78
2022/11/08 03:58:31;;;;;;;21.25;4.63;;;;;;;4.44;100.00;98447.78;2585543;28;20054;-78
2022/11/08 03:59:47;;;;;;;30.67;4.90;;;;;;;4.38;100.00;98440.00;2585076;28;20580;-77
2022/11/08 04:01:06;;;;;;;16.80;4.75;;;;;;;4.37;100.00;98444.34;2574014;28;20058;-78
2022/11/08 04:02:22;;;;;;;11.32;4.88;;;;;;;4.33;100.00;98442.63;2579214;28;20061;-78
2022/11/08 04:03:37;;;;;;;15.10;4.47;;;;;;;4.25;100.00;98446.94;2584945;28;20080;-78
2022/11/08 04:04:53;;;;;;;22.35;4.43;;;;;;;4.27;100.00;98450.41;2574298;28;20061;-77
2022/11/08 04:06:08;;;;;;;16.48;5.10;;;;;;;4.32;100.00;98453.81;2578803;28;20723;-78
2022/11/08 04:07:24;;;;;;;11.88;4.95;;;;;;;4.35;100.00;98450.38;2585228;28;20069;-78
2022/11/08 04:08:39;;;;;;;10.57;4.90;;;;;;;4.33;100.00;98450.41;2584869;28;20772;-82
2022/11/08 04:09:55;;;;;;;22.40;5.00;;;;;;;4.21;100.00;98453.84;2585286;28;20512;-79
2022/11/08 04:15:55;;;;;;;19.67;4.40;;;;;;;4.43;100.00;98447.75;2584907;28;20054;-78
2022/11/08 04:17:10;;;;;;;21.17;4.93;;;;;;;4.20;100.00;98456.47;2574487;28;20053;-78
2022/11/08 04:21:43;;;;;;;18.63;4.93;;;;;;;4.37;100.00;98443.44;2583757;28;20049;-77
2022/11/08 04:22:59;;;;;;;11.50;4.35;;;;;;;4.35;100.00;98445.19;2584950;28;20042;-80
2022/11/08 04:24:14;;;;;;;25.10;5.53;;;;;;;4.42;100.00;98448.63;2574428;28;20046;-78
2022/11/08 04:25:30;;;;;;;29.27;5.18;;;;;;;4.37;100.00;98451.22;2578694;28;20049;-78
2022/11/08 04:26:46;;;;;;;17.00;4.85;;;;;;;4.47;100.00;98446.88;2584881;28;20061;-78
2022/11/08 04:28:02;;;;;;;17.10;4.63;;;;;;;4.50;100.00;98444.28;2585363;28;20084;-78
2022/11/08 04:29:17;;;;;;;15.10;4.18;;;;;;;4.25;100.00;98441.78;2584997;28;20515;-78
2022/11/08 04:30:33;;;;;;;18.00;4.30;;;;;;;4.42;100.00;98441.72;2585430;28;20050;-78
2022/11/08 04:31:49;;;;;;;32.97;4.57;;;;;;;4.51;100.00;98440.84;2584186;28;20099;-78
2022/11/08 04:33:05;;;;;;;16.20;4.53;;;;;;;4.44;100.00;98440.00;2574405;28;20110;-78
2022/11/08 04:34:21;;;;;;;17.58;4.15;;;;;;;4.45;100.00;98436.53;2577449;28;20054;-78
2022/11/08 04:35:37;;;;;;;23.63;4.50;;;;;;;4.38;100.00;98433.09;2584662;28;20532;-79
2022/11/08 04:36:52;;;;;;;25.63;4.40;;;;;;;4.29;100.00;98430.53;2584727;28;20137;-79
2022/11/08 04:38:08;;;;;;;29.98;5.40;;;;;;;4.42;100.00;98430.47;2574601;28;20046;-77
2022/11/08 04:39:23;;;;;;;18.20;4.43;;;;;;;4.33;100.00;98439.16;2577685;28;20050;-78
2022/11/08 04:40:39;;;;;;;25.75;4.93;;;;;;;4.31;100.00;98440.88;2584617;28;20613;-79
2022/11/08 04:41:55;;;;;;;40.60;5.30;;;;;;;4.29;100.00;98435.69;2584837;28;20073;-79
2022/11/08 04:43:11;;;;;;;41.60;5.57;;;;;;;4.29;100.00;98442.63;2585148;28;20069;-77
2022/11/08 04:44:27;;;;;;;44.10;5.78;;;;;;;4.19;100.00;98444.34;2585048;28;20128;-78
2022/11/08 04:45:42;;;;;;;32.53;5.05;;;;;;;4.10;100.00;98440.94;2585018;28;20053;-77
2022/11/08 04:46:58;;;;;;;26.77;4.97;;;;;;;4.17;100.00;98444.38;2585099;28;20133;-78
2022/11/08 04:48:13;;;;;;;26.48;6.05;;;;;;;4.20;100.00;98446.97;2585217;28;20415;-77
2022/11/08 04:49:29;;;;;;;34.65;4.70;;;;;;;4.11;100.00;98441.78;2584724;28;20540;-77
2022/11/08 04:50:44;;;;;;;30.77;5.13;;;;;;;4.19;100.00;98439.19;2583820;28;20213;-81
2022/11/08 04:52:00;;;;;;;38.80;5.70;;;;;;;4.04;100.00;98446.13;2586409;28;20045;-78
2022/11/08 04:53:15;;;;;;;43.63;5.53;;;;;;;4.07;100.00;98440.06;2587199;28;20058;-77
2022/11/08 04:54:31;;;;;;;27.13;5.70;;;;;;;4.08;100.00;98442.66;2587058;28;20148;-78
2022/11/08 04:55:46;;;;;;;25.58;5.28;;;;;;;4.19;100.00;98439.19;2586721;28;20080;-77
2022/11/08 04:57:02;;;;;;;38.85;4.82;;;;;;;3.94;100.00;98437.50;2586242;28;20085;-77
2022/11/08 04:58:18;;;;;;;24.50;5.00;;;;;;;3.85;100.00;98445.28;2585895;28;20053;-77
2022/11/08 04:59:33;;;;;;;24.33;5.82;;;;;;;4.07;100.00;98440.94;2586064;28;20045;-78
2022/11/08 05:00:49;;;;;;;23.75;4.85;;;;;;;4.18;100.00;98438.31;2586078;28;20049;-77
2022/11/08 05:02:05;;;;;;;29.35;4.97;;;;;;;4.09;100.00;98447.00;2586639;28;20054;-78
2022/11/08 05:03:20;;;;;;;36.40;5.57;;;;;;;3.99;100.00;98444.41;2586530;28;20119;-78
2022/11/08 05:04:36;;;;;;;33.50;5.82;;;;;;;4.07;100.00;98442.66;2586444;28;20555;-78
2022/11/08 05:05:51;;;;;;;35.78;5.70;;;;;;;4.10;100.00;98438.34;2585636;28;20050;-77
2022/11/08 05:07:07;;;;;;;43.67;5.93;;;;;;;4.29;100.00;98433.09;2586377;28;20053;-77
2022/11/08 05:08:22;;;;;;;43.53;6.43;;;;;;;4.29;100.00;98434.84;2585979;28;20845;-77
2022/11/08 05:09:38;;;;;;;29.38;4.72;;;;;;;4.16;100.00;98434.88;2585941;28;20452;-77
2022/11/08 05:11:02;;;;;;;28.48;6.20;;;;;;;4.22;100.00;98439.19;2586007;28;20041;-77
2022/11/08 05:12:18;;;;;;;27.92;5.22;;;;;;;4.35;100.00;98440.88;2586446;28;20050;-77
2022/11/08 05:13:34;;;;;;;31.75;5.15;;;;;;;4.29;100.00;98437.44;2575169;28;20556;-78
2022/11/08 05:14:50;;;;;;;11.68;4.85;;;;;;;4.23;100.00;98440.91;2580533;28;20050;-78
2022/11/08 05:16:09;;;;;;;20.23;5.28;;;;;;;4.24;100.00;98438.31;2586737;28;20049;-77
2022/11/08 05:17:25;;;;;;;19.90;4.55;;;;;;;4.28;100.00;98446.94;2585694;28;20058;-77
2022/11/08 05:18:41;;;;;;;30.65;5.40;;;;;;;4.23;100.00;98451.28;2586497;28;20054;-77
2022/11/08 05:23:23;;;;;;;8.93;4.05;;;;;;;4.28;100.00;98444.34;2585980;28;20638;-77
2022/11/08 05:24:39;;;;;;;8.02;3.95;;;;;;;4.19;100.00;98434.88;2586587;28;20132;-77
2022/11/08 05:25:56;;;;;;;12.80;4.25;;;;;;;4.22;100.00;98427.06;2586328;28;20049;-81
2022/11/08 05:27:12;;;;;;;37.80;5.03;;;;;;;4.20;100.00;98436.59;2586609;28;20108;-77
2022/11/08 05:28:27;;;;;;;17.20;4.07;;;;;;;4.08;100.00;98428.84;2586381;28;20100;-78
2022/11/08 05:29:43;;;;;;;7.47;4.03;;;;;;;3.95;100.00;98433.19;2586854;28;20139;-77
2022/11/08 05:30:58;;;;;;;10.98;4.97;;;;;;;3.70;100.00;98435.78;2585992;28;20057;-77
2022/11/08 05:32:14;;;;;;;9.18;5.10;;;;;;;3.62;100.00;98434.94;2586786;28;20288;-77
2022/11/08 05:33:30;;;;;;;11.45;4.80;;;;;;;3.53;100.00;98428.03;2586342;28;20133;-77
2022/11/08 05:34:45;;;;;;;16.92;5.15;;;;;;;3.50;100.00;98426.31;2587009;28;20092;-78
2022/11/08 05:36:05;;;;;;;14.27;5.65;;;;;;;3.55;100.00;98428.03;2585618;28;20144;-76
2022/11/08 05:37:21;;;;;;;11.70;5.55;;;;;;;3.70;100.00;98425.44;2586510;28;20140;-78
2022/11/08 05:38:37;;;;;;;11.65;5.15;;;;;;;3.88;100.00;98429.75;2586499;28;20058;-78
2022/11/08 05:39:53;;;;;;;11.45;5.10;;;;;;;3.89;100.00;98435.78;2585866;28;20049;-77
2022/11/08 05:41:11;;;;;;;11.63;5.05;;;;;;;3.75;100.00;98433.22;2585620;28;20247;-79
2022/11/08 05:42:26;;;;;;;8.60;4.53;;;;;;;3.70;100.00;98435.78;2585645;28;20046;-77
2022/11/08 05:43:45;;;;;;;12.27;4.75;;;;;;;3.76;100.00;98443.53;2586276;28;20500;-78
2022/11/08 05:45:00;;;;;;;10.35;5.13;;;;;;;3.75;100.00;98439.22;2586110;28;20038;-78
2022/11/08 05:46:17;;;;;;;8.90;4.70;;;;;;;3.85;100.00;98445.28;2585951;28;20069;-79
2022/11/08 05:47:32;;;;;;;9.35;5.43;;;;;;;3.90;100.00;98440.97;2584753;28;20057;-79
2022/11/08 05:48:49;;;;;;;10.35;5.28;;;;;;;3.93;100.00;98442.69;2584652;28;20053;-77
2022/11/08 05:50:04;;;;;;;8.40;4.65;;;;;;;4.02;100.00;98439.22;2585936;28;20073;-77
2022/11/08 05:51:20;;;;;;;9.30;4.40;;;;;;;4.03;100.00;98444.38;2586192;28;20053;-77
2022/11/08 05:52:36;;;;;;;10.07;4.60;;;;;;;4.06;100.00;98449.59;2585019;28;20412;-77
2022/11/08 05:53:52;;;;;;;12.50;4.47;;;;;;;3.99;100.00;98447.84;2586113;28;20049;-77
2022/11/08 05:55:08;;;;;;;10.23;4.03;;;;;;;3.90;100.00;98446.16;2585684;28;20053;-78
2022/11/08 05:56:23;;;;;;;10.13;4.85;;;;;;;4.09;100.00;98452.16;2586802;28;20565;-77
2022/11/08 05:57:42;;;;;;;11.80;4.25;;;;;;;3.96;100.00;98455.63;2585889;28;20053;-77
2022/11/08 05:58:58;;;;;;;8.40;3.97;;;;;;;3.79;100.00;98460.81;2585797;28;20049;-79
2022/11/08 06:00:14;;;;;;;8.88;4.03;;;;;;;3.80;100.00;98453.06;2586293;28;20132;-78
2022/11/08 06:01:33;;;;;;;15.55;4.70;;;;;;;3.98;100.00;98455.63;2584597;28;20120;-79
2022/11/08 06:02:49;;;;;;;22.85;4.80;;;;;;;4.04;100.00;98461.66;2585195;28;20050;-79
2022/11/08 06:04:17;;;;;;;35.63;5.60;;;;;;;4.15;100.00;98453.00;2586169;28;20058;-78
2022/11/08 06:05:33;;;;;;;21.00;4.63;;;;;;;3.84;100.00;98456.50;2586468;28;20398;-79
2022/11/08 06:06:49;;;;;;;24.17;4.82;;;;;;;3.68;100.00;98455.66;2586187;28;20052;-80
2022/11/08 06:08:05;;;;;;;21.98;4.32;;;;;;;3.88;100.00;98450.47;2575046;28;20056;-81
2022/11/08 06:09:21;;;;;;;19.38;4.60;;;;;;;3.92;100.00;98459.09;2579538;28;20104;-78
2022/11/08 06:10:36;;;;;;;37.22;4.95;;;;;;;3.98;100.00;98461.69;2574867;28;20054;-78
2022/11/08 06:11:52;;;;;;;21.08;4.60;;;;;;;3.99;100.00;98457.38;2579008;28;20496;-80
2022/11/08 06:13:07;;;;;;;43.88;5.53;;;;;;;3.93;100.00;98468.59;2585908;28;20476;-78
2022/11/08 06:14:23;;;;;;;26.88;4.97;;;;;;;4.15;100.00;98463.38;2586269;28;20050;-77
2022/11/08 06:15:39;;;;;;;25.33;4.70;;;;;;;4.15;100.00;98463.38;2586125;28;20050;-78
2022/11/08 06:16:54;;;;;;;30.70;4.95;;;;;;;3.83;100.00;98467.72;2585844;28;20054;-78
2022/11/08 06:18:10;;;;;;;9.35;3.88;;;;;;;3.91;100.00;98462.53;2585704;28;20045;-77